sensor_id;sensor_type;location;lat;lon;timestamp;P1;durP1;ratioP1;P2;durP2;ratioP2
1651;SDS011;823;49.028;8.454;2023-01-28T00:02:04;2.67;;;2.20;;
1651;SDS011;823;49.028;8.454;2023-01-28T00:07:04;5.75;;;2.20;;
1651;SDS011;823;49.028;8.454;2023-01-28T00:12:04;13.63;;;3.10;;
1651;SDS011;823;49.028;8.454;2023-01-28T00:17:05;2.60;;;1.70;;
1651;SDS011;823;49.028;8.454;2023-01-28T00:22:05;4.97;;;2.37;;
1651;SDS011;823;49.028;8.454;2023-01-28T00:27:06;5.37;;;2.37;;
1651;SDS011;823;49.028;8.454;2023-01-28T00:32:06;6.00;;;3.30;;
1651;SDS011;823;49.028;8.454;2023-01-28T00:37:07;9.23;;;3.40;;
1651;SDS011;823;49.028;8.454;2023-01-28T00:42:07;4.10;;;2.00;;
1651;SDS011;823;49.028;8.454;2023-01-28T00:47:07;4.68;;;2.50;;
1651;SDS011;823;49.028;8.454;2023-01-28T00:52:07;4.25;;;1.80;;
1651;SDS011;823;49.028;8.454;2023-01-28T00:57:08;4.10;;;1.70;;
1651;SDS011;823;49.028;8.454;2023-01-28T01:02:08;4.07;;;2.03;;
1651;SDS011;823;49.028;8.454;2023-01-28T01:07:11;1.93;;;1.47;;
1651;SDS011;823;49.028;8.454;2023-01-28T01:12:11;5.32;;;1.60;;
1651;SDS011;823;49.028;8.454;2023-01-28T01:17:12;4.10;;;2.00;;
1651;SDS011;823;49.028;8.454;2023-01-28T01:22:12;3.58;;;2.00;;
1651;SDS011;823;49.028;8.454;2023-01-28T01:27:12;5.88;;;2.50;;
1651;SDS011;823;49.028;8.454;2023-01-28T01:32:13;2.40;;;1.67;;
1651;SDS011;823;49.028;8.454;2023-01-28T01:37:13;3.55;;;2.00;;
1651;SDS011;823;49.028;8.454;2023-01-28T01:42:13;5.00;;;2.70;;
1651;SDS011;823;49.028;8.454;2023-01-28T01:47:14;4.47;;;2.20;;
1651;SDS011;823;49.028;8.454;2023-01-28T01:52:17;3.53;;;2.40;;
1651;SDS011;823;49.028;8.454;2023-01-28T01:57:23;3.40;;;2.23;;
1651;SDS011;823;49.028;8.454;2023-01-28T02:02:28;3.63;;;2.40;;
1651;SDS011;823;49.028;8.454;2023-01-28T02:07:28;8.40;;;2.50;;
1651;SDS011;823;49.028;8.454;2023-01-28T02:12:30;8.10;;;2.60;;
1651;SDS011;823;49.028;8.454;2023-01-28T02:17:35;2.70;;;1.73;;
1651;SDS011;823;49.028;8.454;2023-01-28T02:27:57;5.23;;;2.77;;
1651;SDS011;823;49.028;8.454;2023-01-28T02:33:17;4.13;;;2.43;;
1651;SDS011;823;49.028;8.454;2023-01-28T02:38:39;4.20;;;2.97;;
1651;SDS011;823;49.028;8.454;2023-01-28T02:43:45;6.73;;;3.10;;
1651;SDS011;823;49.028;8.454;2023-01-28T02:48:46;6.17;;;2.90;;
1651;SDS011;823;49.028;8.454;2023-01-28T02:53:51;4.13;;;2.27;;
1651;SDS011;823;49.028;8.454;2023-01-28T02:59:05;6.50;;;3.53;;
1651;SDS011;823;49.028;8.454;2023-01-28T03:04:31;8.20;;;3.00;;
1651;SDS011;823;49.028;8.454;2023-01-28T03:09:37;5.87;;;2.90;;
1651;SDS011;823;49.028;8.454;2023-01-28T03:14:41;3.70;;;2.90;;
1651;SDS011;823;49.028;8.454;2023-01-28T03:20:03;6.40;;;3.67;;
1651;SDS011;823;49.028;8.454;2023-01-28T03:25:22;7.30;;;3.60;;
1651;SDS011;823;49.028;8.454;2023-01-28T03:30:45;6.27;;;2.77;;
1651;SDS011;823;49.028;8.454;2023-01-28T03:36:10;6.27;;;3.33;;
1651;SDS011;823;49.028;8.454;2023-01-28T03:41:29;7.03;;;3.60;;
1651;SDS011;823;49.028;8.454;2023-01-28T03:46:30;8.93;;;3.60;;
1651;SDS011;823;49.028;8.454;2023-01-28T03:51:30;8.63;;;3.53;;
1651;SDS011;823;49.028;8.454;2023-01-28T03:56:30;6.10;;;3.33;;
1651;SDS011;823;49.028;8.454;2023-01-28T04:01:39;5.87;;;3.60;;
1651;SDS011;823;49.028;8.454;2023-01-28T04:06:39;8.50;;;3.17;;
1651;SDS011;823;49.028;8.454;2023-01-28T04:11:39;8.90;;;4.38;;
1651;SDS011;823;49.028;8.454;2023-01-28T04:16:40;8.23;;;3.77;;
1651;SDS011;823;49.028;8.454;2023-01-28T04:21:41;6.00;;;3.07;;
1651;SDS011;823;49.028;8.454;2023-01-28T04:26:41;7.23;;;2.90;;
1651;SDS011;823;49.028;8.454;2023-01-28T04:31:42;4.18;;;2.88;;
1651;SDS011;823;49.028;8.454;2023-01-28T04:36:42;4.03;;;2.80;;
1651;SDS011;823;49.028;8.454;2023-01-28T04:41:42;9.45;;;3.83;;
1651;SDS011;823;49.028;8.454;2023-01-28T04:46:43;6.87;;;3.70;;
1651;SDS011;823;49.028;8.454;2023-01-28T04:51:43;5.45;;;2.90;;
1651;SDS011;823;49.028;8.454;2023-01-28T04:56:43;4.03;;;2.70;;
1651;SDS011;823;49.028;8.454;2023-01-28T05:01:44;5.40;;;3.30;;
1651;SDS011;823;49.028;8.454;2023-01-28T05:06:44;6.33;;;3.70;;
1651;SDS011;823;49.028;8.454;2023-01-28T05:11:44;6.80;;;4.27;;
1651;SDS011;823;49.028;8.454;2023-01-28T05:16:45;7.50;;;4.30;;
1651;SDS011;823;49.028;8.454;2023-01-28T05:21:45;6.90;;;3.78;;
1651;SDS011;823;49.028;8.454;2023-01-28T05:26:46;10.10;;;4.50;;
1651;SDS011;823;49.028;8.454;2023-01-28T05:31:46;6.30;;;3.60;;
1651;SDS011;823;49.028;8.454;2023-01-28T05:36:47;7.00;;;4.03;;
1651;SDS011;823;49.028;8.454;2023-01-28T05:41:47;8.57;;;4.53;;
1651;SDS011;823;49.028;8.454;2023-01-28T05:46:47;7.53;;;3.80;;
1651;SDS011;823;49.028;8.454;2023-01-28T05:51:48;6.40;;;3.70;;
1651;SDS011;823;49.028;8.454;2023-01-28T05:56:48;7.93;;;4.40;;
1651;SDS011;823;49.028;8.454;2023-01-28T06:01:49;9.43;;;3.55;;
1651;SDS011;823;49.028;8.454;2023-01-28T06:06:49;8.40;;;4.20;;
1651;SDS011;823;49.028;8.454;2023-01-28T06:11:49;8.43;;;4.70;;
1651;SDS011;823;49.028;8.454;2023-01-28T06:16:50;9.65;;;4.68;;
1651;SDS011;823;49.028;8.454;2023-01-28T06:21:51;12.80;;;4.40;;
1651;SDS011;823;49.028;8.454;2023-01-28T06:26:51;12.20;;;4.45;;
1651;SDS011;823;49.028;8.454;2023-01-28T06:31:51;9.68;;;4.75;;
1651;SDS011;823;49.028;8.454;2023-01-28T06:36:52;5.57;;;3.73;;
1651;SDS011;823;49.028;8.454;2023-01-28T06:41:53;9.77;;;5.17;;
1651;SDS011;823;49.028;8.454;2023-01-28T06:46:53;12.27;;;4.50;;
1651;SDS011;823;49.028;8.454;2023-01-28T06:51:53;9.68;;;4.78;;
1651;SDS011;823;49.028;8.454;2023-01-28T06:56:54;9.80;;;4.80;;
1651;SDS011;823;49.028;8.454;2023-01-28T07:01:54;10.30;;;5.28;;
1651;SDS011;823;49.028;8.454;2023-01-28T07:06:55;8.43;;;4.53;;
1651;SDS011;823;49.028;8.454;2023-01-28T07:11:55;10.27;;;5.10;;
1651;SDS011;823;49.028;8.454;2023-01-28T07:16:55;10.03;;;5.83;;
1651;SDS011;823;49.028;8.454;2023-01-28T07:21:56;11.50;;;4.77;;
1651;SDS011;823;49.028;8.454;2023-01-28T07:26:59;14.87;;;5.30;;
1651;SDS011;823;49.028;8.454;2023-01-28T07:31:59;8.45;;;3.95;;
1651;SDS011;823;49.028;8.454;2023-01-28T07:37:00;9.02;;;4.00;;
1651;SDS011;823;49.028;8.454;2023-01-28T07:42:00;6.68;;;4.15;;
1651;SDS011;823;49.028;8.454;2023-01-28T07:47:01;7.00;;;4.40;;
1651;SDS011;823;49.028;8.454;2023-01-28T07:52:02;7.57;;;4.97;;
1651;SDS011;823;49.028;8.454;2023-01-28T07:57:06;9.60;;;4.13;;
1651;SDS011;823;49.028;8.454;2023-01-28T08:02:09;7.30;;;3.67;;
1651;SDS011;823;49.028;8.454;2023-01-28T08:07:11;7.70;;;3.80;;
1651;SDS011;823;49.028;8.454;2023-01-28T08:12:11;6.95;;;3.97;;
1651;SDS011;823;49.028;8.454;2023-01-28T08:17:11;8.10;;;4.18;;
1651;SDS011;823;49.028;8.454;2023-01-28T08:22:11;9.67;;;5.30;;
1651;SDS011;823;49.028;8.454;2023-01-28T08:27:12;8.93;;;3.90;;
1651;SDS011;823;49.028;8.454;2023-01-28T08:32:12;7.47;;;3.63;;
1651;SDS011;823;49.028;8.454;2023-01-28T08:37:12;9.57;;;4.43;;
1651;SDS011;823;49.028;8.454;2023-01-28T08:42:13;11.90;;;4.50;;
1651;SDS011;823;49.028;8.454;2023-01-28T08:47:13;11.10;;;4.50;;
1651;SDS011;823;49.028;8.454;2023-01-28T08:52:14;10.70;;;4.50;;
1651;SDS011;823;49.028;8.454;2023-01-28T08:57:14;9.13;;;3.85;;
1651;SDS011;823;49.028;8.454;2023-01-28T09:02:14;7.38;;;3.60;;
1651;SDS011;823;49.028;8.454;2023-01-28T09:07:15;10.33;;;4.90;;
1651;SDS011;823;49.028;8.454;2023-01-28T09:12:15;18.83;;;5.32;;
1651;SDS011;823;49.028;8.454;2023-01-28T09:17:16;10.57;;;5.37;;
1651;SDS011;823;49.028;8.454;2023-01-28T09:22:16;12.13;;;5.17;;
1651;SDS011;823;49.028;8.454;2023-01-28T09:27:17;10.60;;;5.50;;
1651;SDS011;823;49.028;8.454;2023-01-28T09:32:17;9.50;;;5.43;;
1651;SDS011;823;49.028;8.454;2023-01-28T09:37:18;8.23;;;4.72;;
1651;SDS011;823;49.028;8.454;2023-01-28T09:48:09;9.87;;;5.13;;
1651;SDS011;823;49.028;8.454;2023-01-28T09:58:17;8.93;;;4.70;;
1651;SDS011;823;49.028;8.454;2023-01-28T10:19:27;9.07;;;4.50;;
1651;SDS011;823;49.028;8.454;2023-01-28T10:24:35;7.87;;;4.47;;
1651;SDS011;823;49.028;8.454;2023-01-28T10:29:40;8.73;;;4.03;;
1651;SDS011;823;49.028;8.454;2023-01-28T10:34:42;8.60;;;4.57;;
1651;SDS011;823;49.028;8.454;2023-01-28T10:39:43;8.57;;;4.63;;
1651;SDS011;823;49.028;8.454;2023-01-28T10:44:44;8.90;;;5.17;;
1651;SDS011;823;49.028;8.454;2023-01-28T10:49:46;7.93;;;4.37;;
1651;SDS011;823;49.028;8.454;2023-01-28T10:55:02;8.50;;;4.20;;
1651;SDS011;823;49.028;8.454;2023-01-28T11:05:24;12.63;;;5.00;;
1651;SDS011;823;49.028;8.454;2023-01-28T11:10:30;9.13;;;5.20;;
1651;SDS011;823;49.028;8.454;2023-01-28T11:15:35;11.83;;;4.37;;
1651;SDS011;823;49.028;8.454;2023-01-28T11:21:05;8.50;;;4.33;;
1651;SDS011;823;49.028;8.454;2023-01-28T11:26:14;8.70;;;4.30;;
1651;SDS011;823;49.028;8.454;2023-01-28T11:31:19;6.60;;;4.07;;
1651;SDS011;823;49.028;8.454;2023-01-28T11:36:29;10.93;;;4.63;;
1651;SDS011;823;49.028;8.454;2023-01-28T11:41:33;7.60;;;3.70;;
1651;SDS011;823;49.028;8.454;2023-01-28T11:46:39;10.93;;;4.47;;
1651;SDS011;823;49.028;8.454;2023-01-28T11:51:55;8.10;;;3.80;;
1651;SDS011;823;49.028;8.454;2023-01-28T11:57:22;12.67;;;4.53;;
1651;SDS011;823;49.028;8.454;2023-01-28T12:08:19;6.90;;;2.90;;
1651;SDS011;823;49.028;8.454;2023-01-28T12:29:48;6.30;;;3.10;;
1651;SDS011;823;49.028;8.454;2023-01-28T12:35:04;9.80;;;3.90;;
1651;SDS011;823;49.028;8.454;2023-01-28T12:40:32;5.70;;;3.50;;
1651;SDS011;823;49.028;8.454;2023-01-28T12:45:37;6.97;;;3.70;;
1651;SDS011;823;49.028;8.454;2023-01-28T12:50:44;8.90;;;3.50;;
1651;SDS011;823;49.028;8.454;2023-01-28T12:55:51;7.03;;;3.47;;
1651;SDS011;823;49.028;8.454;2023-01-28T13:01:00;4.40;;;2.73;;
1651;SDS011;823;49.028;8.454;2023-01-28T13:06:20;11.47;;;3.70;;
1651;SDS011;823;49.028;8.454;2023-01-28T13:11:31;7.60;;;3.67;;
1651;SDS011;823;49.028;8.454;2023-01-28T13:16:34;11.00;;;3.37;;
1651;SDS011;823;49.028;8.454;2023-01-28T13:21:34;7.20;;;3.67;;
1651;SDS011;823;49.028;8.454;2023-01-28T13:26:45;7.60;;;3.00;;
1651;SDS011;823;49.028;8.454;2023-01-28T13:31:58;5.53;;;3.20;;
1651;SDS011;823;49.028;8.454;2023-01-28T13:37:05;5.30;;;2.43;;
1651;SDS011;823;49.028;8.454;2023-01-28T13:42:22;5.77;;;3.50;;
1651;SDS011;823;49.028;8.454;2023-01-28T13:47:32;6.33;;;3.30;;
1651;SDS011;823;49.028;8.454;2023-01-28T13:52:44;5.73;;;3.73;;
1651;SDS011;823;49.028;8.454;2023-01-28T14:03:13;6.05;;;3.30;;
1651;SDS011;823;49.028;8.454;2023-01-28T14:19:20;6.43;;;3.43;;
1651;SDS011;823;49.028;8.454;2023-01-28T14:24:27;7.13;;;3.27;;
1651;SDS011;823;49.028;8.454;2023-01-28T14:29:32;3.10;;;2.40;;
1651;SDS011;823;49.028;8.454;2023-01-28T14:34:42;5.40;;;2.57;;
1651;SDS011;823;49.028;8.454;2023-01-28T14:39:47;6.63;;;2.77;;
1651;SDS011;823;49.028;8.454;2023-01-28T14:50:25;3.97;;;2.87;;
1651;SDS011;823;49.028;8.454;2023-01-28T14:56:32;5.53;;;2.40;;
1651;SDS011;823;49.028;8.454;2023-01-28T15:01:22;7.40;;;3.90;;
1651;SDS011;823;49.028;8.454;2023-01-28T15:06:28;8.40;;;3.50;;
1651;SDS011;823;49.028;8.454;2023-01-28T15:11:34;5.10;;;2.87;;
1651;SDS011;823;49.028;8.454;2023-01-28T15:16:38;6.73;;;3.60;;
1651;SDS011;823;49.028;8.454;2023-01-28T15:21:38;6.17;;;3.20;;
1651;SDS011;823;49.028;8.454;2023-01-28T15:26:44;12.43;;;4.37;;
1651;SDS011;823;49.028;8.454;2023-01-28T15:31:46;5.10;;;3.43;;
1651;SDS011;823;49.028;8.454;2023-01-28T15:36:47;6.77;;;3.30;;
1651;SDS011;823;49.028;8.454;2023-01-28T15:41:49;7.23;;;3.20;;
1651;SDS011;823;49.028;8.454;2023-01-28T15:46:59;5.93;;;2.97;;
1651;SDS011;823;49.028;8.454;2023-01-28T15:52:02;4.10;;;2.60;;
1651;SDS011;823;49.028;8.454;2023-01-28T15:57:19;5.77;;;3.30;;
1651;SDS011;823;49.028;8.454;2023-01-28T16:02:24;4.63;;;2.60;;
1651;SDS011;823;49.028;8.454;2023-01-28T16:07:26;6.50;;;3.10;;
1651;SDS011;823;49.028;8.454;2023-01-28T16:12:29;4.60;;;2.63;;
1651;SDS011;823;49.028;8.454;2023-01-28T16:17:30;6.65;;;3.20;;
1651;SDS011;823;49.028;8.454;2023-01-28T16:22:38;7.03;;;2.70;;
1651;SDS011;823;49.028;8.454;2023-01-28T16:27:40;10.10;;;3.70;;
1651;SDS011;823;49.028;8.454;2023-01-28T16:32:41;4.50;;;2.25;;
1651;SDS011;823;49.028;8.454;2023-01-28T16:37:42;5.77;;;3.40;;
1651;SDS011;823;49.028;8.454;2023-01-28T16:42:43;7.43;;;3.30;;
1651;SDS011;823;49.028;8.454;2023-01-28T16:47:44;5.80;;;3.43;;
1651;SDS011;823;49.028;8.454;2023-01-28T16:52:45;5.23;;;3.10;;
1651;SDS011;823;49.028;8.454;2023-01-28T16:57:47;9.50;;;4.23;;
1651;SDS011;823;49.028;8.454;2023-01-28T17:02:52;6.30;;;2.67;;
1651;SDS011;823;49.028;8.454;2023-01-28T17:07:53;6.10;;;3.60;;
1651;SDS011;823;49.028;8.454;2023-01-28T17:12:58;9.23;;;3.70;;
1651;SDS011;823;49.028;8.454;2023-01-28T17:17:58;5.27;;;3.30;;
1651;SDS011;823;49.028;8.454;2023-01-28T17:22:58;5.72;;;3.22;;
1651;SDS011;823;49.028;8.454;2023-01-28T17:27:59;6.10;;;3.40;;
1651;SDS011;823;49.028;8.454;2023-01-28T17:32:59;5.40;;;3.40;;
1651;SDS011;823;49.028;8.454;2023-01-28T17:38:03;8.00;;;3.97;;
1651;SDS011;823;49.028;8.454;2023-01-28T17:43:04;6.80;;;3.87;;
1651;SDS011;823;49.028;8.454;2023-01-28T17:48:04;8.20;;;4.60;;
1651;SDS011;823;49.028;8.454;2023-01-28T17:53:06;11.07;;;4.80;;
1651;SDS011;823;49.028;8.454;2023-01-28T17:58:06;6.97;;;3.83;;
1651;SDS011;823;49.028;8.454;2023-01-28T18:03:09;9.45;;;5.38;;
1651;SDS011;823;49.028;8.454;2023-01-28T18:08:11;9.03;;;4.23;;
1651;SDS011;823;49.028;8.454;2023-01-28T18:13:12;10.15;;;4.55;;
1651;SDS011;823;49.028;8.454;2023-01-28T18:18:12;9.43;;;4.25;;
1651;SDS011;823;49.028;8.454;2023-01-28T18:23:12;9.90;;;4.60;;
1651;SDS011;823;49.028;8.454;2023-01-28T18:28:13;6.87;;;4.00;;
1651;SDS011;823;49.028;8.454;2023-01-28T18:33:13;4.90;;;3.43;;
1651;SDS011;823;49.028;8.454;2023-01-28T18:38:14;12.70;;;4.83;;
1651;SDS011;823;49.028;8.454;2023-01-28T18:43:17;5.43;;;3.77;;
1651;SDS011;823;49.028;8.454;2023-01-28T18:48:17;5.40;;;3.60;;
1651;SDS011;823;49.028;8.454;2023-01-28T18:53:18;8.00;;;4.30;;
1651;SDS011;823;49.028;8.454;2023-01-28T18:58:19;6.10;;;4.10;;
1651;SDS011;823;49.028;8.454;2023-01-28T19:03:19;9.65;;;3.97;;
1651;SDS011;823;49.028;8.454;2023-01-28T19:08:19;6.97;;;3.40;;
1651;SDS011;823;49.028;8.454;2023-01-28T19:13:20;9.23;;;4.25;;
1651;SDS011;823;49.028;8.454;2023-01-28T19:18:20;8.70;;;4.20;;
1651;SDS011;823;49.028;8.454;2023-01-28T19:23:20;8.87;;;5.07;;
1651;SDS011;823;49.028;8.454;2023-01-28T19:28:21;11.90;;;4.67;;
1651;SDS011;823;49.028;8.454;2023-01-28T19:33:21;5.60;;;3.20;;
1651;SDS011;823;49.028;8.454;2023-01-28T19:38:21;5.20;;;3.65;;
1651;SDS011;823;49.028;8.454;2023-01-28T19:43:21;11.23;;;4.45;;
1651;SDS011;823;49.028;8.454;2023-01-28T19:48:22;11.83;;;4.50;;
1651;SDS011;823;49.028;8.454;2023-01-28T19:53:23;10.37;;;4.47;;
1651;SDS011;823;49.028;8.454;2023-01-28T19:58:23;10.50;;;5.03;;
1651;SDS011;823;49.028;8.454;2023-01-28T20:03:23;10.27;;;5.20;;
1651;SDS011;823;49.028;8.454;2023-01-28T20:08:24;9.50;;;4.93;;
1651;SDS011;823;49.028;8.454;2023-01-28T20:13:24;7.60;;;4.87;;
1651;SDS011;823;49.028;8.454;2023-01-28T20:18:25;8.95;;;4.05;;
1651;SDS011;823;49.028;8.454;2023-01-28T20:23:26;7.80;;;4.20;;
1651;SDS011;823;49.028;8.454;2023-01-28T20:28:27;8.20;;;4.40;;
1651;SDS011;823;49.028;8.454;2023-01-28T20:33:27;8.63;;;4.97;;
1651;SDS011;823;49.028;8.454;2023-01-28T20:38:27;10.77;;;4.20;;
1651;SDS011;823;49.028;8.454;2023-01-28T20:43:28;8.60;;;5.30;;
1651;SDS011;823;49.028;8.454;2023-01-28T20:48:28;6.80;;;3.55;;
1651;SDS011;823;49.028;8.454;2023-01-28T20:53:28;9.95;;;5.25;;
1651;SDS011;823;49.028;8.454;2023-01-28T20:58:29;8.63;;;4.25;;
1651;SDS011;823;49.028;8.454;2023-01-28T21:03:30;18.20;;;5.03;;
1651;SDS011;823;49.028;8.454;2023-01-28T21:08:30;8.90;;;4.97;;
1651;SDS011;823;49.028;8.454;2023-01-28T21:13:32;7.33;;;4.10;;
1651;SDS011;823;49.028;8.454;2023-01-28T21:18:32;12.13;;;5.50;;
1651;SDS011;823;49.028;8.454;2023-01-28T21:23:33;10.23;;;5.13;;
1651;SDS011;823;49.028;8.454;2023-01-28T21:28:33;8.37;;;4.27;;
1651;SDS011;823;49.028;8.454;2023-01-28T21:33:33;7.97;;;4.17;;
1651;SDS011;823;49.028;8.454;2023-01-28T21:38:34;7.57;;;4.17;;
1651;SDS011;823;49.028;8.454;2023-01-28T21:43:34;7.97;;;4.07;;
1651;SDS011;823;49.028;8.454;2023-01-28T21:48:35;7.20;;;3.50;;
1651;SDS011;823;49.028;8.454;2023-01-28T21:53:39;6.90;;;3.83;;
1651;SDS011;823;49.028;8.454;2023-01-28T21:58:40;8.47;;;3.53;;
1651;SDS011;823;49.028;8.454;2023-01-28T22:03:59;8.50;;;4.27;;
1651;SDS011;823;49.028;8.454;2023-01-28T22:08:59;7.67;;;5.13;;
1651;SDS011;823;49.028;8.454;2023-01-28T22:14:00;11.83;;;5.50;;
1651;SDS011;823;49.028;8.454;2023-01-28T22:19:00;5.83;;;3.53;;
1651;SDS011;823;49.028;8.454;2023-01-28T22:24:00;6.20;;;3.57;;
1651;SDS011;823;49.028;8.454;2023-01-28T22:29:01;12.32;;;4.18;;
1651;SDS011;823;49.028;8.454;2023-01-28T22:34:02;13.97;;;3.10;;
1651;SDS011;823;49.028;8.454;2023-01-28T22:39:03;5.53;;;3.17;;
1651;SDS011;823;49.028;8.454;2023-01-28T22:44:05;12.87;;;4.27;;
1651;SDS011;823;49.028;8.454;2023-01-28T22:49:06;5.00;;;3.33;;
1651;SDS011;823;49.028;8.454;2023-01-28T22:54:06;13.97;;;3.70;;
1651;SDS011;823;49.028;8.454;2023-01-28T22:59:08;6.20;;;4.17;;
1651;SDS011;823;49.028;8.454;2023-01-28T23:04:08;7.63;;;3.30;;
1651;SDS011;823;49.028;8.454;2023-01-28T23:09:09;6.80;;;3.80;;
1651;SDS011;823;49.028;8.454;2023-01-28T23:14:09;7.80;;;4.40;;
1651;SDS011;823;49.028;8.454;2023-01-28T23:19:39;9.37;;;3.90;;
1651;SDS011;823;49.028;8.454;2023-01-28T23:24:57;13.60;;;4.40;;
1651;SDS011;823;49.028;8.454;2023-01-28T23:29:57;6.40;;;3.53;;
1651;SDS011;823;49.028;8.454;2023-01-28T23:34:58;8.20;;;4.53;;
1651;SDS011;823;49.028;8.454;2023-01-28T23:39:58;6.22;;;3.83;;
1651;SDS011;823;49.028;8.454;2023-01-28T23:44:58;6.65;;;3.85;;
1651;SDS011;823;49.028;8.454;2023-01-28T23:49:59;7.65;;;3.40;;
1651;SDS011;823;49.028;8.454;2023-01-28T23:54:59;9.97;;;4.33;;
1651;SDS011;823;49.028;8.454;2023-01-28T23:59:59;8.43;;;4.00;;
